Time,TemperatureF,DewpointF,PressureIn,WindDirection,WindDirectionDegrees,WindSpeedMPH,WindSpeedGustMPH,Humidity,HourlyPrecipIn,Conditions,Clouds,dailyrainin,SoftwareType,DateUTC
2013-05-04 00:00:00,44.3,40.7,30.36,ESE,112,0.0,0.0,87,0.00,,---,0.00,VWS V14.01,2013-05-04 04:00:00,
2013-05-04 00:15:00,43.6,40.3,30.36,ESE,112,0.0,0.0,88,0.00,,---,0.00,VWS V14.01,2013-05-04 04:15:00,
2013-05-04 00:30:00,43.3,40.3,30.36,ESE,112,0.0,0.0,89,0.00,,---,0.00,VWS V14.01,2013-05-04 04:30:00,
2013-05-04 00:45:00,42.8,40.1,30.35,ESE,112,0.0,0.0,90,0.00,,---,0.00,VWS V14.01,2013-05-04 04:45:00,
2013-05-04 01:00:00,42.3,39.9,30.35,ESE,112,0.0,0.0,91,0.00,,---,0.00,VWS V14.01,2013-05-04 05:00:00,
2013-05-04 01:15:00,41.9,39.8,30.35,ESE,112,0.0,0.0,92,0.00,,---,0.00,VWS V14.01,2013-05-04 05:15:00,
2013-05-04 01:30:00,41.5,39.3,30.34,ESE,112,0.0,0.0,92,0.00,,---,0.00,VWS V14.01,2013-05-04 05:30:00,
2013-05-04 01:45:00,41.2,39.3,30.33,ESE,112,0.0,0.0,93,0.00,,---,0.00,VWS V14.01,2013-05-04 05:45:00,
2013-05-04 02:00:00,40.9,39.0,30.33,ESE,112,0.0,0.0,93,0.00,,---,0.00,VWS V14.01,2013-05-04 06:00:00,
2013-05-04 02:15:00,40.8,39.2,30.32,ESE,112,0.0,0.0,94,0.00,,---,0.00,VWS V14.01,2013-05-04 06:15:00,
2013-05-04 02:30:00,40.3,38.7,30.32,ESE,112,0.0,0.0,94,0.00,,---,0.00,VWS V14.01,2013-05-04 06:30:00,
2013-05-04 02:45:00,40.1,38.5,30.31,ESE,112,0.0,0.0,94,0.00,,---,0.00,VWS V14.01,2013-05-04 06:45:00,
2013-05-04 03:00:00,40.1,38.8,30.31,ESE,112,0.0,0.0,95,0.00,,---,0.00,VWS V14.01,2013-05-04 07:00:00,
2013-05-04 03:15:00,39.8,38.5,30.31,ESE,112,0.0,0.0,95,0.00,,---,0.00,VWS V14.01,2013-05-04 07:15:00,
2013-05-04 03:30:00,39.6,38.6,30.31,ESE,112,0.0,0.0,96,0.00,,---,0.00,VWS V14.01,2013-05-04 07:30:00,
2013-05-04 03:45:00,39.3,38.0,30.30,ESE,112,0.0,0.0,95,0.00,,---,0.00,VWS V14.01,2013-05-04 07:45:00,
2013-05-04 04:00:00,39.1,38.1,30.30,ESE,112,0.0,0.0,96,0.00,,---,0.00,VWS V14.01,2013-05-04 08:00:00,
2013-05-04 04:15:00,38.9,37.9,30.29,ESE,112,0.0,0.0,96,0.00,,---,0.00,VWS V14.01,2013-05-04 08:15:00,
2013-05-04 04:30:00,38.6,37.6,30.29,ESE,112,0.0,0.0,96,0.00,,---,0.00,VWS V14.01,2013-05-04 08:30:00,
2013-05-04 04:45:00,38.3,37.3,30.29,ESE,112,0.0,0.0,96,0.00,,---,0.00,VWS V14.01,2013-05-04 08:45:00,
2013-05-04 05:00:00,38.3,37.3,30.29,ESE,112,0.0,0.0,96,0.00,,---,0.00,VWS V14.01,2013-05-04 09:00:00,
2013-05-04 05:15:00,39.1,38.3,30.29,ESE,112,0.0,0.0,97,0.00,,---,0.00,VWS V14.01,2013-05-04 09:15:00,
2013-05-04 05:30:00,39.1,38.1,30.29,ESE,112,0.0,0.0,96,0.00,,---,0.00,VWS V14.01,2013-05-04 09:30:00,
2013-05-04 05:45:00,38.5,37.5,30.29,ESE,112,0.0,0.0,96,0.00,,---,0.00,VWS V14.01,2013-05-04 09:45:00,
2013-05-04 06:00:00,38.0,37.0,30.29,ESE,112,0.0,0.0,96,0.00,,---,0.00,VWS V14.01,2013-05-04 10:00:00,
2013-05-04 06:15:00,37.9,37.1,30.29,ESE,112,0.0,0.0,97,0.00,,---,0.00,VWS V14.01,2013-05-04 10:15:00,
2013-05-04 06:30:00,37.9,37.1,30.30,ESE,112,0.0,0.0,97,0.00,,---,0.00,VWS V14.01,2013-05-04 10:30:00,
2013-05-04 06:58:00,39.1,38.3,30.30,ESE,110,0.0,0.0,97,0.00,,---,0.00,VWS V14.01,2013-05-04 10:58:00,
2013-05-04 07:01:00,39.3,38.5,30.30,ESE,110,0.0,0.0,97,0.00,,---,0.00,VWS V14.01,2013-05-04 11:01:00,
2013-05-04 07:02:00,39.6,38.8,30.30,ESE,110,0.0,0.0,97,0.00,,---,0.00,VWS V14.01,2013-05-04 11:02:00,
2013-05-04 07:04:00,39.8,39.3,30.30,ESE,110,0.0,0.0,98,0.00,,---,0.00,VWS V14.01,2013-05-04 11:04:00,
2013-05-04 07:08:00,40.2,39.7,30.30,ESE,110,0.0,0.0,98,0.00,,---,0.00,VWS V14.01,2013-05-04 11:08:00,
2013-05-04 07:10:00,40.3,39.8,30.30,ESE,110,0.0,0.0,98,0.00,,---,0.00,VWS V14.01,2013-05-04 11:10:00,
2013-05-04 07:14:00,40.8,40.3,30.30,ESE,110,0.0,0.0,98,0.00,,---,0.00,VWS V14.01,2013-05-04 11:14:00,
2013-05-04 07:15:00,40.9,40.4,30.30,ESE,110,0.0,0.0,98,0.00,,---,0.00,VWS V14.01,2013-05-04 11:15:00,
2013-05-04 07:16:00,40.9,40.4,30.30,ESE,110,0.0,0.0,98,0.00,,---,0.00,VWS V14.01,2013-05-04 11:16:00,
2013-05-04 07:20:00,41.5,41.0,30.30,ESE,110,0.0,0.0,98,0.00,,---,0.00,VWS V14.01,2013-05-04 11:20:00,
2013-05-04 07:24:00,41.9,41.4,30.30,ESE,110,0.0,0.0,98,0.00,,---,0.00,VWS V14.01,2013-05-04 11:24:00,
2013-05-04 07:26:00,42.1,41.6,30.30,ESE,110,0.0,0.0,98,0.00,,---,0.00,VWS V14.01,2013-05-04 11:26:00,
2013-05-04 07:28:00,42.3,41.8,30.30,ESE,110,0.0,0.0,98,0.00,,---,0.00,VWS V14.01,2013-05-04 11:28:00,
2013-05-04 07:32:00,42.8,42.3,30.30,ESE,110,0.0,0.0,98,0.00,,---,0.00,VWS V14.01,2013-05-04 11:32:00,
2013-05-04 07:34:00,43.1,42.6,30.30,ESE,110,0.0,0.0,98,0.00,,---,0.00,VWS V14.01,2013-05-04 11:34:00,
2013-05-04 07:38:00,43.5,43.0,30.29,ESE,110,0.0,0.0,98,0.00,,---,0.00,VWS V14.01,2013-05-04 11:38:00,
2013-05-04 07:40:00,43.6,43.1,30.30,ESE,110,0.0,1.0,98,0.00,,---,0.00,VWS V14.01,2013-05-04 11:40:00,
2013-05-04 07:46:00,44.2,43.7,30.30,ESE,110,0.0,1.0,98,0.00,,---,0.00,VWS V14.01,2013-05-04 11:46:00,
2013-05-04 07:47:00,44.2,43.7,30.30,ESE,110,0.0,0.0,98,0.00,,---,0.00,VWS V14.01,2013-05-04 11:47:00,
2013-05-04 07:51:00,44.8,44.3,30.30,ESE,110,0.0,1.0,98,0.00,,---,0.00,VWS V14.01,2013-05-04 11:51:00,
2013-05-04 07:57:00,45.4,44.6,30.30,ESE,110,0.0,1.0,97,0.00,,---,0.00,VWS V14.01,2013-05-04 11:57:00,
2013-05-04 08:01:00,45.7,44.9,30.30,ESE,110,0.0,1.0,97,0.00,,---,0.00,VWS V14.01,2013-05-04 12:01:00,
2013-05-04 08:03:00,46.1,45.3,30.30,ESE,110,0.0,0.0,97,0.00,,---,0.00,VWS V14.01,2013-05-04 12:03:00,
2013-05-04 08:05:00,46.2,45.1,30.30,ESE,110,0.0,0.0,96,0.00,,---,0.00,VWS V14.01,2013-05-04 12:05:00,
2013-05-04 08:07:00,46.5,45.4,30.30,SSW,192,0.0,1.0,96,0.00,,---,0.00,VWS V14.01,2013-05-04 12:07:00,
2013-05-04 08:09:00,46.8,45.7,30.30,SSW,192,0.0,1.0,96,0.00,,---,0.00,VWS V14.01,2013-05-04 12:09:00,
2013-05-04 08:13:00,47.6,46.2,30.30,SSW,192,0.0,1.0,95,0.00,,---,0.00,VWS V14.01,2013-05-04 12:13:00,
2013-05-04 08:15:00,48.0,46.6,30.30,SSW,192,0.0,1.0,95,0.00,,---,0.00,VWS V14.01,2013-05-04 12:15:00,
2013-05-04 08:16:00,48.0,46.6,30.30,SSW,192,0.0,1.0,95,0.00,,---,0.00,VWS V14.01,2013-05-04 12:16:00,
2013-05-04 08:21:00,48.8,46.9,30.30,SSW,192,0.0,0.0,93,0.00,,---,0.00,VWS V14.01,2013-05-04 12:21:00,
2013-05-04 08:23:00,49.1,46.9,30.30,SSW,192,0.0,0.0,92,0.00,,---,0.00,VWS V14.01,2013-05-04 12:23:00,
2013-05-04 08:27:00,49.6,46.5,30.30,SSW,192,0.0,0.0,89,0.00,,---,0.00,VWS V14.01,2013-05-04 12:27:00,
2013-05-04 08:31:00,50.1,46.4,30.30,SSW,192,0.0,1.0,87,0.00,,---,0.00,VWS V14.01,2013-05-04 12:31:00,
2013-05-04 08:38:00,51.6,46.6,30.30,South,191,0.0,1.0,83,0.00,,---,0.00,VWS V14.01,2013-05-04 12:38:00,
2013-05-04 08:42:00,52.3,46.0,30.30,South,189,0.0,1.0,79,0.00,,---,0.00,VWS V14.01,2013-05-04 12:42:00,
2013-05-04 08:44:00,52.8,46.1,30.30,South,189,0.0,1.0,78,0.00,,---,0.00,VWS V14.01,2013-05-04 12:44:00,
2013-05-04 08:48:00,53.3,45.6,30.30,SE,129,0.0,2.0,75,0.00,,---,0.00,VWS V14.01,2013-05-04 12:48:00,
2013-05-04 08:50:00,53.9,45.8,30.30,NE,56,4.0,4.0,74,0.00,,---,0.00,VWS V14.01,2013-05-04 12:50:00,
2013-05-04 08:54:00,54.8,44.8,30.30,ESE,103,3.0,6.0,69,0.00,,---,0.00,VWS V14.01,2013-05-04 12:54:00,
2013-05-04 08:56:00,55.3,44.2,30.30,NE,42,2.0,6.0,66,0.00,,---,0.00,VWS V14.01,2013-05-04 12:56:00,
2013-05-04 08:58:00,55.7,44.1,30.30,NE,46,1.0,6.0,65,0.00,,---,0.00,VWS V14.01,2013-05-04 12:58:00,
2013-05-04 09:02:00,56.5,44.5,30.30,East,93,0.0,4.0,64,0.00,,---,0.00,VWS V14.01,2013-05-04 13:02:00,
2013-05-04 09:06:00,56.9,43.6,30.30,NNE,32,1.0,5.0,61,0.00,,---,0.00,VWS V14.01,2013-05-04 13:06:00,
2013-05-04 09:08:00,56.9,43.6,30.29,ESE,109,0.0,5.0,61,0.00,,---,0.00,VWS V14.01,2013-05-04 13:08:00,
2013-05-04 09:10:00,57.0,43.3,30.30,ESE,110,0.0,5.0,60,0.00,,---,0.00,VWS V14.01,2013-05-04 13:10:00,
2013-05-04 09:14:00,57.3,43.5,30.29,East,82,0.0,5.0,60,0.00,,---,0.00,VWS V14.01,2013-05-04 13:14:00,
2013-05-04 09:16:00,57.5,43.7,30.30,East,98,0.0,1.0,60,0.00,,---,0.00,VWS V14.01,2013-05-04 13:16:00,
2013-05-04 09:18:00,57.6,43.4,30.30,NE,55,3.0,4.0,59,0.00,,---,0.00,VWS V14.01,2013-05-04 13:18:00,
2013-05-04 09:22:00,57.8,42.7,30.30,North,9,5.0,5.0,57,0.00,,---,0.00,VWS V14.01,2013-05-04 13:22:00,
2013-05-04 09:24:00,57.8,44.0,30.30,East,82,3.0,6.0,60,0.00,,---,0.00,VWS V14.01,2013-05-04 13:24:00,
2013-05-04 09:26:00,57.8,43.1,30.30,ENE,63,0.0,9.0,58,0.00,,---,0.00,VWS V14.01,2013-05-04 13:26:00,
2013-05-04 09:28:00,57.6,42.5,30.30,ENE,69,6.0,9.0,57,0.00,,---,0.00,VWS V14.01,2013-05-04 13:28:00,
2013-05-04 09:34:00,57.8,43.1,30.29,ENE,59,0.0,3.0,58,0.00,,---,0.00,VWS V14.01,2013-05-04 13:34:00,
2013-05-04 09:36:00,58.3,44.5,30.29,NE,52,3.0,4.0,60,0.00,,---,0.00,VWS V14.01,2013-05-04 13:36:00,
2013-05-04 09:38:00,58.4,43.7,30.29,East,97,1.0,6.0,58,0.00,,---,0.00,VWS V14.01,2013-05-04 13:38:00,
2013-05-04 09:40:00,58.6,43.9,30.29,ENE,61,1.0,6.0,58,0.00,,---,0.00,VWS V14.01,2013-05-04 13:40:00,
2013-05-04 09:46:00,58.3,43.2,30.29,ESE,104,5.0,6.0,57,0.00,,---,0.00,VWS V14.01,2013-05-04 13:46:00,
2013-05-04 09:48:00,58.1,42.0,30.29,ENE,70,3.0,7.0,55,0.00,,---,0.00,VWS V14.01,2013-05-04 13:48:00,
2013-05-04 09:54:00,58.4,42.8,30.29,NNE,14,4.0,9.0,56,0.00,,---,0.00,VWS V14.01,2013-05-04 13:54:00,
2013-05-04 09:56:00,58.6,42.5,30.29,ENE,59,1.0,9.0,55,0.00,,---,0.00,VWS V14.01,2013-05-04 13:56:00,
2013-05-04 09:58:00,58.7,41.6,30.29,ENE,70,5.0,9.0,53,0.00,,---,0.00,VWS V14.01,2013-05-04 13:58:00,
2013-05-04 10:04:00,59.0,41.9,30.29,NE,53,2.0,6.0,53,0.00,,---,0.00,VWS V14.01,2013-05-04 14:04:00,
2013-05-04 10:06:00,59.0,41.9,30.29,East,95,2.0,6.0,53,0.00,,---,0.00,VWS V14.01,2013-05-04 14:06:00,
2013-05-04 10:08:00,59.2,42.1,30.29,NNE,32,1.0,6.0,53,0.00,,---,0.00,VWS V14.01,2013-05-04 14:08:00,
2013-05-04 10:10:00,59.3,42.2,30.29,ENE,75,4.0,6.0,53,0.00,,---,0.00,VWS V14.01,2013-05-04 14:10:00,
2013-05-04 10:12:00,59.5,42.4,30.29,ENE,65,1.0,6.0,53,0.00,,---,0.00,VWS V14.01,2013-05-04 14:12:00,
2013-05-04 10:14:00,59.6,42.0,30.29,ENE,71,1.0,6.0,52,0.00,,---,0.00,VWS V14.01,2013-05-04 14:14:00,
2013-05-04 10:16:00,59.8,42.7,30.29,ENE,62,4.0,6.0,53,0.00,,---,0.00,VWS V14.01,2013-05-04 14:16:00,
2013-05-04 10:18:00,60.1,42.4,30.29,East,94,3.0,5.0,52,0.00,,---,0.00,VWS V14.01,2013-05-04 14:18:00,
2013-05-04 10:20:00,60.2,41.5,30.29,ENE,63,2.0,5.0,50,0.00,,---,0.00,VWS V14.01,2013-05-04 14:20:00,
2013-05-04 10:22:00,60.4,41.7,30.28,ENE,72,3.0,5.0,50,0.00,,---,0.00,VWS V14.01,2013-05-04 14:22:00,
2013-05-04 10:26:00,60.7,41.5,30.29,East,96,2.0,6.0,49,0.00,,---,0.00,VWS V14.01,2013-05-04 14:26:00,
2013-05-04 10:28:00,60.7,40.4,30.28,ENE,71,6.0,6.0,47,0.00,,---,0.00,VWS V14.01,2013-05-04 14:28:00,
2013-05-04 10:30:00,60.9,41.6,30.28,NE,43,6.0,6.0,49,0.00,,---,0.00,VWS V14.01,2013-05-04 14:30:00,
2013-05-04 10:32:00,60.9,41.6,30.29,ENE,74,1.0,5.0,49,0.00,,---,0.00,VWS V14.01,2013-05-04 14:32:00,
2013-05-04 10:34:00,60.9,41.6,30.28,NE,36,4.0,5.0,49,0.00,,---,0.00,VWS V14.01,2013-05-04 14:34:00,
2013-05-04 10:36:00,61.0,41.7,30.28,NE,44,7.0,7.0,49,0.00,,---,0.00,VWS V14.01,2013-05-04 14:36:00,
2013-05-04 10:38:00,61.0,40.1,30.28,NE,53,5.0,7.0,46,0.00,,---,0.00,VWS V14.01,2013-05-04 14:38:00,
2013-05-04 10:40:00,61.2,41.9,30.28,NE,40,1.0,7.0,49,0.00,,---,0.00,VWS V14.01,2013-05-04 14:40:00,
2013-05-04 10:42:00,61.3,41.5,30.28,North,5,5.0,7.0,48,0.00,,---,0.00,VWS V14.01,2013-05-04 14:42:00,
2013-05-04 10:46:00,61.3,40.4,30.28,NE,51,0.0,7.0,46,0.00,,---,0.00,VWS V14.01,2013-05-04 14:46:00,
2013-05-04 10:50:00,61.6,41.7,30.28,NE,51,4.0,7.0,48,0.00,,---,0.00,VWS V14.01,2013-05-04 14:50:00,
2013-05-04 10:52:00,61.6,40.6,30.28,NE,42,3.0,9.0,46,0.00,,---,0.00,VWS V14.01,2013-05-04 14:52:00,
2013-05-04 10:54:00,61.8,40.8,30.28,NE,38,3.0,9.0,46,0.00,,---,0.00,VWS V14.01,2013-05-04 14:54:00,
2013-05-04 10:56:00,61.8,40.8,30.28,NNE,32,4.0,9.0,46,0.00,,---,0.00,VWS V14.01,2013-05-04 14:56:00,
2013-05-04 10:58:00,61.8,40.8,30.28,ENE,62,1.0,9.0,46,0.00,,---,0.00,VWS V14.01,2013-05-04 14:58:00,
2013-05-04 11:00:00,61.8,41.4,30.28,ESE,103,4.0,9.0,47,0.00,,---,0.00,VWS V14.01,2013-05-04 15:00:00,
2013-05-04 11:01:00,61.8,41.4,30.28,ESE,102,3.0,9.0,47,0.00,,---,0.00,VWS V14.01,2013-05-04 15:01:00,
2013-05-04 11:04:00,62.1,41.7,30.28,East,89,0.0,5.0,47,0.00,,---,0.00,VWS V14.01,2013-05-04 15:04:00,
2013-05-04 11:06:00,62.1,41.1,30.28,NE,55,3.0,5.0,46,0.00,,---,0.00,VWS V14.01,2013-05-04 15:06:00,
2013-05-04 11:12:00,62.6,41.5,30.28,East,98,2.0,5.0,46,0.00,,---,0.00,VWS V14.01,2013-05-04 15:12:00,
2013-05-04 11:16:00,62.7,43.3,30.27,South,184,2.0,5.0,49,0.00,,---,0.00,VWS V14.01,2013-05-04 15:16:00,
2013-05-04 11:18:00,63.1,44.2,30.27,SSW,194,3.0,7.0,50,0.00,,---,0.00,VWS V14.01,2013-05-04 15:18:00,
2013-05-04 11:24:00,63.2,43.2,30.27,NNE,13,1.0,7.0,48,0.00,,---,0.00,VWS V14.01,2013-05-04 15:24:00,
2013-05-04 11:26:00,63.2,42.1,30.27,NNE,15,3.0,7.0,46,0.00,,---,0.00,VWS V14.01,2013-05-04 15:26:00,
2013-05-04 11:30:00,63.4,43.4,30.27,East,92,2.0,7.0,48,0.00,,---,0.00,VWS V14.01,2013-05-04 15:30:00,
2013-05-04 11:32:00,63.4,42.8,30.27,East,91,0.0,3.0,47,0.00,,---,0.00,VWS V14.01,2013-05-04 15:32:00,
2013-05-04 11:36:00,63.7,45.2,30.27,East,93,3.0,5.0,51,0.00,,---,0.00,VWS V14.01,2013-05-04 15:36:00,
2013-05-04 11:38:00,63.9,43.3,30.27,NNE,25,1.0,5.0,47,0.00,,---,0.00,VWS V14.01,2013-05-04 15:38:00,
2013-05-04 11:40:00,64.2,45.2,30.27,ENE,67,1.0,5.0,50,0.00,,---,0.00,VWS V14.01,2013-05-04 15:40:00,
2013-05-04 11:42:00,64.5,44.9,30.27,ENE,67,6.0,6.0,49,0.00,,---,0.00,VWS V14.01,2013-05-04 15:42:00,
2013-05-04 11:44:00,64.7,44.0,30.27,East,101,2.0,6.0,47,0.00,,---,0.00,VWS V14.01,2013-05-04 15:44:00,
2013-05-04 11:46:00,64.8,44.7,30.27,East,101,0.0,6.0,48,0.00,,---,0.00,VWS V14.01,2013-05-04 15:46:00,
2013-05-04 11:48:00,65.2,44.5,30.27,NNE,13,1.0,5.0,47,0.00,,---,0.00,VWS V14.01,2013-05-04 15:48:00,
2013-05-04 11:50:00,65.3,44.0,30.27,NNE,15,0.0,5.0,46,0.00,,---,0.00,VWS V14.01,2013-05-04 15:50:00,
2013-05-04 11:52:00,65.5,45.8,30.27,SSW,202,5.0,5.0,49,0.00,,---,0.00,VWS V14.01,2013-05-04 15:52:00,
2013-05-04 12:00:00,65.5,45.3,30.26,East,90,2.0,7.0,48,0.00,,---,0.00,VWS V14.01,2013-05-04 16:00:00,
2013-05-04 12:15:00,65.8,45.0,30.26,South,180,2.0,11.0,47,0.00,,---,0.00,VWS V14.01,2013-05-04 16:15:00,
2013-05-04 12:30:00,65.8,43.3,30.26,East,90,3.0,10.0,44,0.00,,---,0.00,VWS V14.01,2013-05-04 16:30:00,
2013-05-04 12:45:00,66.1,43.6,30.26,East,90,3.0,10.0,44,0.00,,---,0.00,VWS V14.01,2013-05-04 16:45:00,
2013-05-04 13:00:00,66.6,42.2,30.25,East,90,2.0,9.0,41,0.00,,---,0.00,VWS V14.01,2013-05-04 17:00:00,
2013-05-04 13:15:00,67.3,44.1,30.25,SSW,202,2.0,7.0,43,0.00,,---,0.00,VWS V14.01,2013-05-04 17:15:00,
2013-05-04 13:30:00,67.9,42.1,30.24,East,90,3.0,14.0,39,0.00,,---,0.00,VWS V14.01,2013-05-04 17:30:00,
2013-05-04 13:45:00,67.3,44.7,30.24,East,90,3.0,10.0,44,0.00,,---,0.00,VWS V14.01,2013-05-04 17:45:00,
2013-05-04 14:00:00,67.9,42.1,30.24,East,90,1.0,7.0,39,0.00,,---,0.00,VWS V14.01,2013-05-04 18:00:00,
2013-05-04 14:15:00,68.4,43.2,30.23,East,90,2.0,9.0,40,0.00,,---,0.00,VWS V14.01,2013-05-04 18:15:00,
2013-05-04 14:30:00,68.6,43.3,30.23,East,90,2.0,6.0,40,0.00,,---,0.00,VWS V14.01,2013-05-04 18:30:00,
2013-05-04 14:45:00,68.6,42.7,30.23,East,90,3.0,14.0,39,0.00,,---,0.00,VWS V14.01,2013-05-04 18:45:00,
2013-05-04 15:00:00,68.8,44.8,30.22,East,90,3.0,11.0,42,0.00,,---,0.00,VWS V14.01,2013-05-04 19:00:00,
2013-05-04 15:15:00,68.6,44.0,30.21,SSE,158,3.0,10.0,41,0.00,,---,0.00,VWS V14.01,2013-05-04 19:15:00,
2013-05-04 15:30:00,69.1,46.3,30.21,South,180,3.0,12.0,44,0.00,,---,0.00,VWS V14.01,2013-05-04 19:30:00,
2013-05-04 15:45:00,69.1,45.1,30.21,SSE,158,2.0,9.0,42,0.00,,---,0.00,VWS V14.01,2013-05-04 19:45:00,
2013-05-04 16:00:00,68.9,44.9,30.20,East,90,2.0,7.0,42,0.00,,---,0.00,VWS V14.01,2013-05-04 20:00:00,
2013-05-04 16:15:00,68.9,42.3,30.20,East,90,2.0,6.0,38,0.00,,---,0.00,VWS V14.01,2013-05-04 20:15:00,
2013-05-04 16:30:00,69.4,42.7,30.20,WSW,248,2.0,7.0,38,0.00,,---,0.00,VWS V14.01,2013-05-04 20:30:00,
2013-05-04 16:45:00,69.3,41.9,30.19,South,180,2.0,8.0,37,0.00,,---,0.00,VWS V14.01,2013-05-04 20:45:00,
2013-05-04 17:00:00,68.8,41.5,30.19,South,180,3.0,11.0,37,0.00,,---,0.00,VWS V14.01,2013-05-04 21:00:00,
2013-05-04 17:15:00,68.3,41.7,30.19,SSE,158,3.0,9.0,38,0.00,,---,0.00,VWS V14.01,2013-05-04 21:15:00,
2013-05-04 17:30:00,68.6,40.6,30.19,East,90,2.0,6.0,36,0.00,,---,0.00,VWS V14.01,2013-05-04 21:30:00,
2013-05-04 17:45:00,67.9,42.1,30.19,ESE,112,2.0,6.0,39,0.00,,---,0.00,VWS V14.01,2013-05-04 21:45:00,
2013-05-04 18:00:00,67.3,43.5,30.19,East,90,2.0,10.0,42,0.00,,---,0.00,VWS V14.01,2013-05-04 22:00:00,
2013-05-04 18:15:00,66.1,43.0,30.19,East,90,3.0,7.0,43,0.00,,---,0.00,VWS V14.01,2013-05-04 22:15:00,
2013-05-04 18:30:00,65.8,42.1,30.19,East,90,2.0,7.0,42,0.00,,---,0.00,VWS V14.01,2013-05-04 22:30:00,
2013-05-04 18:45:00,64.5,42.1,30.19,East,90,3.0,10.0,44,0.00,,---,0.00,VWS V14.01,2013-05-04 22:45:00,
2013-05-04 19:00:00,63.2,43.2,30.20,East,90,2.0,9.0,48,0.00,,---,0.00,VWS V14.01,2013-05-04 23:00:00,
2013-05-04 19:15:00,62.1,42.2,30.20,East,90,2.0,11.0,48,0.00,,---,0.00,VWS V14.01,2013-05-04 23:15:00,
2013-05-04 19:30:00,60.7,42.0,30.20,East,90,2.0,10.0,50,0.00,,---,0.00,VWS V14.01,2013-05-04 23:30:00,
2013-05-04 19:45:00,59.3,42.2,30.21,East,90,1.0,6.0,53,0.00,,---,0.00,VWS V14.01,2013-05-04 23:45:00,
2013-05-04 20:00:00,57.8,42.2,30.22,East,90,1.0,4.0,56,0.00,,---,0.00,VWS V14.01,2013-05-05 00:00:00,
2013-05-04 20:15:00,56.6,42.5,30.22,East,90,1.0,6.0,59,0.00,,---,0.00,VWS V14.01,2013-05-05 00:15:00,
2013-05-04 20:30:00,55.6,42.8,30.22,East,90,1.0,7.0,62,0.00,,---,0.00,VWS V14.01,2013-05-05 00:30:00,
2013-05-04 20:45:00,54.4,42.5,30.23,East,90,1.0,4.0,64,0.00,,---,0.00,VWS V14.01,2013-05-05 00:45:00,
2013-05-04 21:00:00,53.3,42.2,30.24,East,90,0.0,2.0,66,0.00,,---,0.00,VWS V14.01,2013-05-05 01:00:00,
2013-05-04 21:15:00,52.6,42.0,30.25,East,90,1.0,4.0,67,0.00,,---,0.00,VWS V14.01,2013-05-05 01:15:00,
2013-05-04 21:30:00,51.7,41.5,30.25,ESE,112,0.0,2.0,68,0.00,,---,0.00,VWS V14.01,2013-05-05 01:30:00,
2013-05-04 21:45:00,51.0,40.8,30.25,ESE,112,0.0,2.0,68,0.00,,---,0.00,VWS V14.01,2013-05-05 01:45:00,
2013-05-04 22:00:00,50.1,40.3,30.26,ESE,112,0.0,1.0,69,0.00,,---,0.00,VWS V14.01,2013-05-05 02:00:00,
2013-05-04 22:15:00,49.4,40.0,30.26,SE,135,0.0,3.0,70,0.00,,---,0.00,VWS V14.01,2013-05-05 02:15:00,
2013-05-04 22:30:00,48.9,39.6,30.27,ESE,112,0.0,3.0,70,0.00,,---,0.00,VWS V14.01,2013-05-05 02:30:00,
2013-05-04 22:45:00,48.3,39.3,30.27,SE,135,0.0,2.0,71,0.00,,---,0.00,VWS V14.01,2013-05-05 02:45:00,
2013-05-04 23:00:00,47.6,39.0,30.27,SE,135,0.0,0.0,72,0.00,,---,0.00,VWS V14.01,2013-05-05 03:00:00,
2013-05-04 23:15:00,46.7,38.9,30.27,SE,135,0.0,0.0,74,0.00,,---,0.00,VWS V14.01,2013-05-05 03:15:00,
2013-05-04 23:30:00,45.5,38.4,30.27,SE,135,0.0,0.0,76,0.00,,---,0.00,VWS V14.01,2013-05-05 03:30:00,
2013-05-04 23:45:00,44.6,38.8,30.27,SE,135,0.0,0.0,80,0.00,,---,0.00,VWS V14.01,2013-05-05 03:45:00,